sensor_id;sensor_type;location;lat;lon;timestamp;pressure;altitude;pressure_sealevel;temperature;humidity
61506;BME280;47366;51.916;4.574;2023-02-01T00:00:03;102160.84;;;6.00;80.00
61506;BME280;47366;51.916;4.574;2023-02-01T00:02:29;102160.81;;;6.01;80.00
61506;BME280;47366;51.916;4.574;2023-02-01T00:04:54;102163.50;;;6.01;80.12
61506;BME280;47366;51.916;4.574;2023-02-01T00:07:20;102155.38;;;6.03;79.89
61506;BME280;47366;51.916;4.574;2023-02-01T00:09:45;102162.56;;;6.04;80.07
61506;BME280;47366;51.916;4.574;2023-02-01T00:12:10;102161.69;;;6.02;79.80
61506;BME280;47366;51.916;4.574;2023-02-01T00:14:36;102161.66;;;6.03;79.16
61506;BME280;47366;51.916;4.574;2023-02-01T00:17:07;102167.94;;;6.02;79.28
61506;BME280;47366;51.916;4.574;2023-02-01T00:19:32;102177.72;;;6.06;79.50
61506;BME280;47366;51.916;4.574;2023-02-01T00:21:58;102165.16;;;6.07;79.07
61506;BME280;47366;51.916;4.574;2023-02-01T00:24:23;102154.44;;;6.05;79.22
61506;BME280;47366;51.916;4.574;2023-02-01T00:26:48;102166.09;;;6.06;79.35
61506;BME280;47366;51.916;4.574;2023-02-01T00:29:15;102162.50;;;6.05;78.83
61506;BME280;47366;51.916;4.574;2023-02-01T00:31:41;102158.97;;;6.03;78.95
61506;BME280;47366;51.916;4.574;2023-02-01T00:34:13;102157.25;;;6.01;78.67
61506;BME280;47366;51.916;4.574;2023-02-01T00:36:39;102170.56;;;6.05;78.87
61506;BME280;47366;51.916;4.574;2023-02-01T00:39:05;102158.06;;;6.03;77.68
61506;BME280;47366;51.916;4.574;2023-02-01T00:41:30;102155.38;;;6.03;78.43
61506;BME280;47366;51.916;4.574;2023-02-01T00:43:55;102169.75;;;6.02;78.09
61506;BME280;47366;51.916;4.574;2023-02-01T00:46:21;102146.44;;;6.02;78.75
61506;BME280;47366;51.916;4.574;2023-02-01T00:48:47;102162.50;;;6.05;78.57
61506;BME280;47366;51.916;4.574;2023-02-01T00:51:18;102158.03;;;6.04;78.44
61506;BME280;47366;51.916;4.574;2023-02-01T00:53:44;102152.75;;;6.01;77.58
61506;BME280;47366;51.916;4.574;2023-02-01T00:56:10;102141.09;;;6.01;77.91
61506;BME280;47366;51.916;4.574;2023-02-01T00:58:36;102143.81;;;6.01;77.95
61506;BME280;47366;51.916;4.574;2023-02-01T01:01:13;102138.47;;;5.98;78.59
61506;BME280;47366;51.916;4.574;2023-02-01T01:03:41;102143.84;;;5.98;77.85
61506;BME280;47366;51.916;4.574;2023-02-01T01:06:09;102140.25;;;5.99;78.51
61506;BME280;47366;51.916;4.574;2023-02-01T01:08:36;102131.28;;;5.98;78.01
61506;BME280;47366;51.916;4.574;2023-02-01T01:11:16;102141.97;;;6.01;78.04
61506;BME280;47366;51.916;4.574;2023-02-01T01:13:42;102130.34;;;6.01;77.89
61506;BME280;47366;51.916;4.574;2023-02-01T01:16:09;102134.81;;;6.00;78.11
61506;BME280;47366;51.916;4.574;2023-02-01T01:18:36;102132.97;;;6.02;78.68
61506;BME280;47366;51.916;4.574;2023-02-01T01:21:03;102132.09;;;6.03;78.12
61506;BME280;47366;51.916;4.574;2023-02-01T01:23:29;102130.22;;;6.05;78.62
61506;BME280;47366;51.916;4.574;2023-02-01T01:25:54;102143.63;;;6.08;78.25
61506;BME280;47366;51.916;4.574;2023-02-01T01:28:19;102135.50;;;6.10;78.69
61506;BME280;47366;51.916;4.574;2023-02-01T01:30:45;102135.44;;;6.13;78.34
61506;BME280;47366;51.916;4.574;2023-02-01T01:33:10;102137.22;;;6.14;78.95
61506;BME280;47366;51.916;4.574;2023-02-01T01:35:35;102148.81;;;6.18;78.52
61506;BME280;47366;51.916;4.574;2023-02-01T01:38:02;102140.75;;;6.16;78.73
61506;BME280;47366;51.916;4.574;2023-02-01T01:40:28;102145.06;;;6.23;78.63
61506;BME280;47366;51.916;4.574;2023-02-01T01:42:54;102141.41;;;6.27;78.49
61506;BME280;47366;51.916;4.574;2023-02-01T01:45:22;102129.81;;;6.24;78.38
61506;BME280;47366;51.916;4.574;2023-02-01T01:47:57;102139.69;;;6.23;78.70
61506;BME280;47366;51.916;4.574;2023-02-01T01:50:27;102143.34;;;6.21;78.90
61506;BME280;47366;51.916;4.574;2023-02-01T01:52:54;102134.41;;;6.20;78.71
61506;BME280;47366;51.916;4.574;2023-02-01T01:55:22;102130.88;;;6.16;79.16
61506;BME280;47366;51.916;4.574;2023-02-01T01:57:57;102130.94;;;6.15;78.92
61506;BME280;47366;51.916;4.574;2023-02-01T02:00:24;102134.44;;;6.17;78.91
61506;BME280;47366;51.916;4.574;2023-02-01T02:02:57;102138.91;;;6.18;79.13
61506;BME280;47366;51.916;4.574;2023-02-01T02:05:24;102130.06;;;6.13;78.33
61506;BME280;47366;51.916;4.574;2023-02-01T02:07:51;102137.19;;;6.15;79.15
61506;BME280;47366;51.916;4.574;2023-02-01T02:10:18;102120.22;;;6.12;78.80
61506;BME280;47366;51.916;4.574;2023-02-01T02:12:46;102122.84;;;6.15;78.73
61506;BME280;47366;51.916;4.574;2023-02-01T02:15:14;102117.47;;;6.15;78.70
61506;BME280;47366;51.916;4.574;2023-02-01T02:20:37;102108.47;;;6.16;79.25
61506;BME280;47366;51.916;4.574;2023-02-01T02:29:03;102100.31;;;6.19;79.03
61506;BME280;47366;51.916;4.574;2023-02-01T02:34:50;102094.94;;;6.19;79.18
61506;BME280;47366;51.916;4.574;2023-02-01T02:37:34;102100.31;;;6.19;78.89
61506;BME280;47366;51.916;4.574;2023-02-01T02:40:31;102093.97;;;6.23;79.24
61506;BME280;47366;51.916;4.574;2023-02-01T02:46:07;102109.25;;;6.21;79.01
61506;BME280;47366;51.916;4.574;2023-02-01T02:49:02;102103.84;;;6.23;79.06
61506;BME280;47366;51.916;4.574;2023-02-01T02:54:27;102118.25;;;6.20;78.56
61506;BME280;47366;51.916;4.574;2023-02-01T03:00:08;102114.50;;;6.27;78.45
61506;BME280;47366;51.916;4.574;2023-02-01T03:02:53;102095.66;;;6.27;78.19
61506;BME280;47366;51.916;4.574;2023-02-01T03:05:41;102086.66;;;6.28;78.12
61506;BME280;47366;51.916;4.574;2023-02-01T03:08:27;102092.00;;;6.30;78.21
61506;BME280;47366;51.916;4.574;2023-02-01T03:11:14;102089.31;;;6.30;77.65
61506;BME280;47366;51.916;4.574;2023-02-01T03:21:11;102064.28;;;6.26;78.23
61506;BME280;47366;51.916;4.574;2023-02-01T03:23:38;102074.16;;;6.27;77.84
61506;BME280;47366;51.916;4.574;2023-02-01T03:26:08;102071.44;;;6.27;77.76
61506;BME280;47366;51.916;4.574;2023-02-01T03:28:34;102065.22;;;6.25;78.31
61506;BME280;47366;51.916;4.574;2023-02-01T03:31:02;102066.97;;;6.26;78.10
61506;BME280;47366;51.916;4.574;2023-02-01T03:33:29;102053.63;;;6.22;77.96
61506;BME280;47366;51.916;4.574;2023-02-01T03:38:49;102068.91;;;6.20;78.00
61506;BME280;47366;51.916;4.574;2023-02-01T03:42:12;102061.88;;;6.15;78.34
61506;BME280;47366;51.916;4.574;2023-02-01T03:46:50;102079.84;;;6.13;78.68
61506;BME280;47366;51.916;4.574;2023-02-01T03:49:23;102088.78;;;6.14;78.69
61506;BME280;47366;51.916;4.574;2023-02-01T03:51:52;102082.50;;;6.15;79.11
61506;BME280;47366;51.916;4.574;2023-02-01T03:54:19;102075.34;;;6.14;78.80
61506;BME280;47366;51.916;4.574;2023-02-01T03:56:47;102063.72;;;6.12;78.61
61506;BME280;47366;51.916;4.574;2023-02-01T03:59:14;102056.53;;;6.12;78.67
61506;BME280;47366;51.916;4.574;2023-02-01T04:01:40;102079.81;;;6.15;79.04
61506;BME280;47366;51.916;4.574;2023-02-01T04:04:06;102081.66;;;6.13;79.11
61506;BME280;47366;51.916;4.574;2023-02-01T04:06:31;102076.28;;;6.11;79.11
61506;BME280;47366;51.916;4.574;2023-02-01T04:08:57;102081.69;;;6.10;78.88
61506;BME280;47366;51.916;4.574;2023-02-01T04:11:22;102072.81;;;6.08;78.86
61506;BME280;47366;51.916;4.574;2023-02-01T04:13:47;102075.41;;;6.11;78.79
61506;BME280;47366;51.916;4.574;2023-02-01T04:16:13;102081.59;;;6.14;78.68
61506;BME280;47366;51.916;4.574;2023-02-01T04:18:38;102084.38;;;6.11;78.67
61506;BME280;47366;51.916;4.574;2023-02-01T04:21:04;102083.41;;;6.14;78.69
61506;BME280;47366;51.916;4.574;2023-02-01T04:23:29;102079.88;;;6.12;78.89
61506;BME280;47366;51.916;4.574;2023-02-01T04:26:00;102080.72;;;6.14;78.64
61506;BME280;47366;51.916;4.574;2023-02-01T04:28:26;102084.25;;;6.16;78.97
61506;BME280;47366;51.916;4.574;2023-02-01T04:30:52;102069.94;;;6.15;78.42
61506;BME280;47366;51.916;4.574;2023-02-01T04:33:17;102078.00;;;6.15;78.37
61506;BME280;47366;51.916;4.574;2023-02-01T04:35:42;102074.34;;;6.18;78.73
61506;BME280;47366;51.916;4.574;2023-02-01T04:38:08;102083.28;;;6.20;77.80
61506;BME280;47366;51.916;4.574;2023-02-01T04:40:33;102069.84;;;6.19;78.38
61506;BME280;47366;51.916;4.574;2023-02-01T04:43:00;102086.81;;;6.22;78.08
61506;BME280;47366;51.916;4.574;2023-02-01T04:45:25;102081.38;;;6.24;78.43
61506;BME280;47366;51.916;4.574;2023-02-01T04:47:51;102070.69;;;6.22;78.53
61506;BME280;47366;51.916;4.574;2023-02-01T04:50:16;102085.81;;;6.26;78.30
61506;BME280;47366;51.916;4.574;2023-02-01T04:52:41;102079.53;;;6.26;78.48
61506;BME280;47366;51.916;4.574;2023-02-01T04:55:07;102081.28;;;6.28;78.38
61506;BME280;47366;51.916;4.574;2023-02-01T04:57:33;102070.50;;;6.28;78.36
61506;BME280;47366;51.916;4.574;2023-02-01T04:59:58;102072.31;;;6.28;78.68
61506;BME280;47366;51.916;4.574;2023-02-01T05:02:23;102059.72;;;6.30;78.52
61506;BME280;47366;51.916;4.574;2023-02-01T05:04:49;102056.97;;;6.31;78.58
61506;BME280;47366;51.916;4.574;2023-02-01T05:07:15;102066.88;;;6.31;78.37
61506;BME280;47366;51.916;4.574;2023-02-01T05:09:41;102056.94;;;6.33;78.71
61506;BME280;47366;51.916;4.574;2023-02-01T05:12:06;102059.66;;;6.31;78.47
61506;BME280;47366;51.916;4.574;2023-02-01T05:14:51;102066.91;;;6.29;78.34
61506;BME280;47366;51.916;4.574;2023-02-01T05:17:16;102058.97;;;6.25;78.58
61506;BME280;47366;51.916;4.574;2023-02-01T05:19:42;102057.16;;;6.24;78.90
61506;BME280;47366;51.916;4.574;2023-02-01T05:22:07;102063.59;;;6.18;78.64
61506;BME280;47366;51.916;4.574;2023-02-01T05:24:32;102070.72;;;6.19;78.87
61506;BME280;47366;51.916;4.574;2023-02-01T05:26:58;102075.22;;;6.19;79.11
61506;BME280;47366;51.916;4.574;2023-02-01T05:29:23;102081.56;;;6.18;79.32
61506;BME280;47366;51.916;4.574;2023-02-01T05:31:48;102078.88;;;6.16;78.73
61506;BME280;47366;51.916;4.574;2023-02-01T05:34:14;102061.91;;;6.12;79.19
61506;BME280;47366;51.916;4.574;2023-02-01T05:36:40;102079.84;;;6.13;79.18
61506;BME280;47366;51.916;4.574;2023-02-01T05:39:05;102070.06;;;6.09;79.28
61506;BME280;47366;51.916;4.574;2023-02-01T05:41:30;102082.63;;;6.10;79.29
61506;BME280;47366;51.916;4.574;2023-02-01T05:43:56;102077.25;;;6.09;79.25
61506;BME280;47366;51.916;4.574;2023-02-01T05:46:21;102081.75;;;6.08;79.52
61506;BME280;47366;51.916;4.574;2023-02-01T05:48:47;102085.44;;;6.04;79.68
61506;BME280;47366;51.916;4.574;2023-02-01T05:51:12;102088.13;;;6.04;79.64
61506;BME280;47366;51.916;4.574;2023-02-01T05:53:38;102084.50;;;6.05;79.72
61506;BME280;47366;51.916;4.574;2023-02-01T05:56:04;102080.94;;;6.05;79.72
61506;BME280;47366;51.916;4.574;2023-02-01T05:58:30;102088.13;;;6.04;79.70
61506;BME280;47366;51.916;4.574;2023-02-01T06:00:55;102086.38;;;6.02;79.92
61506;BME280;47366;51.916;4.574;2023-02-01T06:03:21;102079.25;;;6.01;80.00
61506;BME280;47366;51.916;4.574;2023-02-01T06:05:47;102077.44;;;6.01;80.07
61506;BME280;47366;51.916;4.574;2023-02-01T06:08:13;102089.09;;;6.00;80.11
61506;BME280;47366;51.916;4.574;2023-02-01T06:10:39;102092.72;;;5.99;80.26
61506;BME280;47366;51.916;4.574;2023-02-01T06:13:04;102100.78;;;5.99;80.38
61506;BME280;47366;51.916;4.574;2023-02-01T06:15:30;102091.00;;;5.97;80.35
61506;BME280;47366;51.916;4.574;2023-02-01T06:17:56;102082.88;;;5.98;80.32
61506;BME280;47366;51.916;4.574;2023-02-01T06:20:21;102096.38;;;5.97;80.52
61506;BME280;47366;51.916;4.574;2023-02-01T06:22:47;102101.66;;;6.00;80.61
61506;BME280;47366;51.916;4.574;2023-02-01T06:25:12;102095.44;;;5.98;80.68
61506;BME280;47366;51.916;4.574;2023-02-01T06:27:38;102098.97;;;6.00;80.81
61506;BME280;47366;51.916;4.574;2023-02-01T06:30:04;102084.63;;;6.01;80.67
61506;BME280;47366;51.916;4.574;2023-02-01T06:32:30;102099.91;;;5.99;80.36
61506;BME280;47366;51.916;4.574;2023-02-01T06:34:56;102099.84;;;6.00;80.67
61506;BME280;47366;51.916;4.574;2023-02-01T06:37:22;102093.59;;;6.00;80.65
61506;BME280;47366;51.916;4.574;2023-02-01T06:39:49;102099.91;;;5.99;80.32
61506;BME280;47366;51.916;4.574;2023-02-01T06:42:14;102100.72;;;6.02;80.78
61506;BME280;47366;51.916;4.574;2023-02-01T06:44:40;102106.97;;;6.03;80.58
61506;BME280;47366;51.916;4.574;2023-02-01T06:47:05;102096.22;;;6.03;80.38
61506;BME280;47366;51.916;4.574;2023-02-01T06:49:30;102097.16;;;6.02;80.12
61506;BME280;47366;51.916;4.574;2023-02-01T06:51:56;102089.94;;;6.04;80.18
61506;BME280;47366;51.916;4.574;2023-02-01T06:54:21;102098.00;;;6.04;79.93
61506;BME280;47366;51.916;4.574;2023-02-01T06:56:46;102085.44;;;6.04;80.03
61506;BME280;47366;51.916;4.574;2023-02-01T06:59:12;102096.16;;;6.06;80.29
61506;BME280;47366;51.916;4.574;2023-02-01T07:01:37;102095.31;;;6.04;80.16
61506;BME280;47366;51.916;4.574;2023-02-01T07:04:03;102092.53;;;6.07;80.02
61506;BME280;47366;51.916;4.574;2023-02-01T07:06:28;102080.94;;;6.05;79.92
61506;BME280;47366;51.916;4.574;2023-02-01T07:08:54;102089.84;;;6.07;80.08
61506;BME280;47366;51.916;4.574;2023-02-01T07:11:22;102080.94;;;6.05;80.43
61506;BME280;47366;51.916;4.574;2023-02-01T07:13:48;102092.56;;;6.05;80.23
61506;BME280;47366;51.916;4.574;2023-02-01T07:16:16;102086.38;;;6.03;79.93
61506;BME280;47366;51.916;4.574;2023-02-01T07:18:42;102087.25;;;6.04;80.39
61506;BME280;47366;51.916;4.574;2023-02-01T07:21:08;102092.56;;;6.05;80.32
61506;BME280;47366;51.916;4.574;2023-02-01T07:23:34;102110.47;;;6.08;80.30
61506;BME280;47366;51.916;4.574;2023-02-01T07:26:02;102101.47;;;6.09;80.21
61506;BME280;47366;51.916;4.574;2023-02-01T07:28:30;102113.97;;;6.10;80.35
61506;BME280;47366;51.916;4.574;2023-02-01T07:31:02;102090.72;;;6.09;80.45
61506;BME280;47366;51.916;4.574;2023-02-01T07:33:27;102107.63;;;6.12;80.29
61506;BME280;47366;51.916;4.574;2023-02-01T07:35:53;102098.66;;;6.13;80.25
61506;BME280;47366;51.916;4.574;2023-02-01T07:38:18;102096.88;;;6.12;80.08
61506;BME280;47366;51.916;4.574;2023-02-01T07:40:44;102105.00;;;6.11;80.44
61506;BME280;47366;51.916;4.574;2023-02-01T07:43:09;102117.53;;;6.12;80.15
61506;BME280;47366;51.916;4.574;2023-02-01T07:45:35;102124.69;;;6.13;80.32
61506;BME280;47366;51.916;4.574;2023-02-01T07:48:01;102128.34;;;6.10;80.45
61506;BME280;47366;51.916;4.574;2023-02-01T07:50:27;102131.03;;;6.10;80.40
61506;BME280;47366;51.916;4.574;2023-02-01T07:52:52;102139.97;;;6.11;80.46
61506;BME280;47366;51.916;4.574;2023-02-01T07:55:19;102142.59;;;6.14;80.67
61506;BME280;47366;51.916;4.574;2023-02-01T07:57:44;102141.72;;;6.12;80.65
61506;BME280;47366;51.916;4.574;2023-02-01T08:00:10;102134.53;;;6.14;80.69
61506;BME280;47366;51.916;4.574;2023-02-01T08:02:54;102139.81;;;6.17;80.76
61506;BME280;47366;51.916;4.574;2023-02-01T08:05:19;102131.75;;;6.17;80.54
61506;BME280;47366;51.916;4.574;2023-02-01T08:07:48;102136.22;;;6.18;80.49
61506;BME280;47366;51.916;4.574;2023-02-01T08:10:15;102146.88;;;6.23;80.79
61506;BME280;47366;51.916;4.574;2023-02-01T08:12:40;102138.81;;;6.23;80.86
61506;BME280;47366;51.916;4.574;2023-02-01T08:15:06;102132.50;;;6.24;80.86
61506;BME280;47366;51.916;4.574;2023-02-01T08:17:32;102127.91;;;6.29;80.83
61506;BME280;47366;51.916;4.574;2023-02-01T08:19:57;102125.16;;;6.32;80.48
61506;BME280;47366;51.916;4.574;2023-02-01T08:22:22;102121.50;;;6.34;80.44
61506;BME280;47366;51.916;4.574;2023-02-01T08:24:48;102126.81;;;6.37;80.30
61506;BME280;47366;51.916;4.574;2023-02-01T08:27:14;102110.59;;;6.41;80.11
61506;BME280;47366;51.916;4.574;2023-02-01T08:29:40;102118.59;;;6.44;79.91
61506;BME280;47366;51.916;4.574;2023-02-01T08:32:05;102127.44;;;6.49;80.30
61506;BME280;47366;51.916;4.574;2023-02-01T08:34:31;102112.16;;;6.51;80.15
61506;BME280;47366;51.916;4.574;2023-02-01T08:36:56;102106.78;;;6.51;79.89
61506;BME280;47366;51.916;4.574;2023-02-01T08:39:25;102108.63;;;6.47;79.81
61506;BME280;47366;51.916;4.574;2023-02-01T08:41:51;102106.78;;;6.51;80.09
61506;BME280;47366;51.916;4.574;2023-02-01T08:44:35;102095.91;;;6.54;79.70
61506;BME280;47366;51.916;4.574;2023-02-01T08:47:02;102104.91;;;6.53;79.77
61506;BME280;47366;51.916;4.574;2023-02-01T08:49:27;102114.69;;;6.57;79.75
61506;BME280;47366;51.916;4.574;2023-02-01T08:51:52;102116.38;;;6.61;79.73
61506;BME280;47366;51.916;4.574;2023-02-01T08:54:18;102105.50;;;6.66;79.72
61506;BME280;47366;51.916;4.574;2023-02-01T08:56:43;102113.41;;;6.72;79.88
61506;BME280;47366;51.916;4.574;2023-02-01T08:59:08;102109.69;;;6.77;79.82
61506;BME280;47366;51.916;4.574;2023-02-01T09:01:34;102114.06;;;6.81;79.50
61506;BME280;47366;51.916;4.574;2023-02-01T09:03:59;102102.38;;;6.83;79.65
61506;BME280;47366;51.916;4.574;2023-02-01T09:06:24;102083.50;;;6.84;79.42
61506;BME280;47366;51.916;4.574;2023-02-01T09:08:49;102069.94;;;6.87;79.78
61506;BME280;47366;51.916;4.574;2023-02-01T09:11:17;102074.34;;;6.90;79.58
61506;BME280;47366;51.916;4.574;2023-02-01T09:13:44;102069.75;;;6.93;79.48
61506;BME280;47366;51.916;4.574;2023-02-01T09:16:10;102070.66;;;6.94;79.41
61506;BME280;47366;51.916;4.574;2023-02-01T09:18:35;102065.19;;;6.97;79.43
61506;BME280;47366;51.916;4.574;2023-02-01T09:21:05;102066.94;;;6.98;79.37
61506;BME280;47366;51.916;4.574;2023-02-01T09:23:31;102057.88;;;7.02;79.20
61506;BME280;47366;51.916;4.574;2023-02-01T09:26:04;102075.72;;;7.06;79.07
61506;BME280;47366;51.916;4.574;2023-02-01T09:28:30;102065.78;;;7.08;78.70
61506;BME280;47366;51.916;4.574;2023-02-01T09:30:59;102093.50;;;7.12;78.50
61506;BME280;47366;51.916;4.574;2023-02-01T09:33:26;102092.44;;;7.17;78.58
61506;BME280;47366;51.916;4.574;2023-02-01T09:36:00;102090.66;;;7.18;78.22
61506;BME280;47366;51.916;4.574;2023-02-01T09:38:27;102083.50;;;7.17;78.57
61506;BME280;47366;51.916;4.574;2023-02-01T09:40:53;102083.47;;;7.18;78.29
61506;BME280;47366;51.916;4.574;2023-02-01T09:43:37;102093.28;;;7.21;78.00
61506;BME280;47366;51.916;4.574;2023-02-01T09:48:54;102099.41;;;7.26;77.74
61506;BME280;47366;51.916;4.574;2023-02-01T09:51:26;102097.66;;;7.25;77.19
61506;BME280;47366;51.916;4.574;2023-02-01T09:54:09;102111.16;;;7.23;76.71
61506;BME280;47366;51.916;4.574;2023-02-01T09:56:43;102105.63;;;7.30;77.29
61506;BME280;47366;51.916;4.574;2023-02-01T09:59:46;102115.38;;;7.34;77.18
61506;BME280;47366;51.916;4.574;2023-02-01T10:02:24;102116.47;;;7.27;77.00
61506;BME280;47366;51.916;4.574;2023-02-01T10:04:54;102128.22;;;7.24;77.05
61506;BME280;47366;51.916;4.574;2023-02-01T10:07:36;102125.56;;;7.22;77.03
61506;BME280;47366;51.916;4.574;2023-02-01T10:12:54;102109.56;;;7.16;77.32
61506;BME280;47366;51.916;4.574;2023-02-01T10:18:57;102115.81;;;7.17;77.14
61506;BME280;47366;51.916;4.574;2023-02-01T10:21:48;102108.72;;;7.14;76.88
61506;BME280;47366;51.916;4.574;2023-02-01T10:29:42;102113.22;;;7.14;77.30
61506;BME280;47366;51.916;4.574;2023-02-01T10:32:17;102108.84;;;7.10;77.33
61506;BME280;47366;51.916;4.574;2023-02-01T10:34:48;102107.94;;;7.11;77.88
61506;BME280;47366;51.916;4.574;2023-02-01T10:37:20;102108.78;;;7.13;77.68
61506;BME280;47366;51.916;4.574;2023-02-01T10:39:49;102101.47;;;7.16;77.90
61506;BME280;47366;51.916;4.574;2023-02-01T10:42:18;102105.94;;;7.17;78.08
61506;BME280;47366;51.916;4.574;2023-02-01T10:44:46;102096.13;;;7.15;77.97
61506;BME280;47366;51.916;4.574;2023-02-01T10:47:14;102097.81;;;7.19;77.71
61506;BME280;47366;51.916;4.574;2023-02-01T10:49:49;102088.69;;;7.25;77.82
61506;BME280;47366;51.916;4.574;2023-02-01T10:54:53;102089.25;;;7.36;77.47
61506;BME280;47366;51.916;4.574;2023-02-01T10:57:24;102084.47;;;7.45;77.35
61506;BME280;47366;51.916;4.574;2023-02-01T10:59:51;102084.44;;;7.47;77.16
61506;BME280;47366;51.916;4.574;2023-02-01T11:02:25;102075.34;;;7.51;76.80
61506;BME280;47366;51.916;4.574;2023-02-01T11:05:02;102092.31;;;7.55;76.53
61506;BME280;47366;51.916;4.574;2023-02-01T11:07:28;102086.13;;;7.51;76.18
61506;BME280;47366;51.916;4.574;2023-02-01T11:09:55;102075.28;;;7.53;76.86
61506;BME280;47366;51.916;4.574;2023-02-01T11:12:35;102086.88;;;7.56;76.53
61506;BME280;47366;51.916;4.574;2023-02-01T11:15:13;102085.91;;;7.59;76.51
61506;BME280;47366;51.916;4.574;2023-02-01T11:17:42;102079.72;;;7.55;76.55
61506;BME280;47366;51.916;4.574;2023-02-01T11:22:56;102069.69;;;7.60;76.71
61506;BME280;47366;51.916;4.574;2023-02-01T11:25:23;102067.88;;;7.61;76.51
61506;BME280;47366;51.916;4.574;2023-02-01T11:27:50;102055.38;;;7.58;76.47
61506;BME280;47366;51.916;4.574;2023-02-01T11:30:21;102077.84;;;7.57;75.90
61506;BME280;47366;51.916;4.574;2023-02-01T11:32:48;102068.84;;;7.58;76.08
61506;BME280;47366;51.916;4.574;2023-02-01T11:35:20;102078.69;;;7.59;76.26
61506;BME280;47366;51.916;4.574;2023-02-01T11:37:54;102072.47;;;7.57;76.14
61506;BME280;47366;51.916;4.574;2023-02-01T11:42:57;102063.50;;;7.57;76.69
61506;BME280;47366;51.916;4.574;2023-02-01T11:45:27;102075.97;;;7.61;76.70
61506;BME280;47366;51.916;4.574;2023-02-01T11:47:54;102089.38;;;7.62;76.73
61506;BME280;47366;51.916;4.574;2023-02-01T12:01:54;102080.38;;;7.63;76.56
61506;BME280;47366;51.916;4.574;2023-02-01T12:07:19;102080.28;;;7.66;76.46
61506;BME280;47366;51.916;4.574;2023-02-01T12:12:57;102064.22;;;7.63;76.53
61506;BME280;47366;51.916;4.574;2023-02-01T12:21:30;102065.81;;;7.69;76.26
61506;BME280;47366;51.916;4.574;2023-02-01T12:24:17;102048.91;;;7.64;76.13
61506;BME280;47366;51.916;4.574;2023-02-01T12:26:56;102049.75;;;7.66;76.60
61506;BME280;47366;51.916;4.574;2023-02-01T12:29:40;102066.84;;;7.65;76.72
61506;BME280;47366;51.916;4.574;2023-02-01T12:32:31;102054.16;;;7.69;76.64
61506;BME280;47366;51.916;4.574;2023-02-01T12:35:17;102044.13;;;7.74;76.44
61506;BME280;47366;51.916;4.574;2023-02-01T12:38:02;102036.81;;;7.77;76.30
61506;BME280;47366;51.916;4.574;2023-02-01T12:43:07;102040.56;;;8.01;75.77
61506;BME280;47366;51.916;4.574;2023-02-01T12:45:44;102054.78;;;8.06;75.67
61506;BME280;47366;51.916;4.574;2023-02-01T12:51:02;102061.41;;;7.96;75.03
61506;BME280;47366;51.916;4.574;2023-02-01T12:53:46;102055.19;;;7.94;75.26
61506;BME280;47366;51.916;4.574;2023-02-01T12:56:40;102056.91;;;7.97;75.22
61506;BME280;47366;51.916;4.574;2023-02-01T12:59:19;102059.50;;;8.00;75.34
61506;BME280;47366;51.916;4.574;2023-02-01T13:01:50;102059.50;;;8.00;75.56
61506;BME280;47366;51.916;4.574;2023-02-01T13:06:59;102056.03;;;7.96;75.59
61506;BME280;47366;51.916;4.574;2023-02-01T13:09:40;102049.78;;;7.94;75.55
61506;BME280;47366;51.916;4.574;2023-02-01T13:12:21;102065.03;;;7.95;75.37
61506;BME280;47366;51.916;4.574;2023-02-01T13:14:53;102040.75;;;7.95;75.40
61506;BME280;47366;51.916;4.574;2023-02-01T13:17:38;102045.28;;;7.95;75.30
61506;BME280;47366;51.916;4.574;2023-02-01T13:23:02;102047.53;;;8.08;75.30
61506;BME280;47366;51.916;4.574;2023-02-01T13:25:40;102042.75;;;8.17;75.18
61506;BME280;47366;51.916;4.574;2023-02-01T13:28:17;102054.09;;;8.28;75.18
61506;BME280;47366;51.916;4.574;2023-02-01T13:31:13;102033.38;;;8.28;74.71
61506;BME280;47366;51.916;4.574;2023-02-01T13:33:58;102061.38;;;8.26;75.24
61506;BME280;47366;51.916;4.574;2023-02-01T13:42:03;102054.59;;;8.13;75.50
61506;BME280;47366;51.916;4.574;2023-02-01T13:44:37;102049.38;;;8.08;75.77
61506;BME280;47366;51.916;4.574;2023-02-01T13:49:45;102058.63;;;7.99;76.00
61506;BME280;47366;51.916;4.574;2023-02-01T13:52:51;102055.81;;;8.02;76.25
61506;BME280;47366;51.916;4.574;2023-02-01T13:57:46;102059.63;;;7.95;76.39
61506;BME280;47366;51.916;4.574;2023-02-01T14:00:31;102055.19;;;7.94;76.49
61506;BME280;47366;51.916;4.574;2023-02-01T14:10:52;102051.63;;;7.94;76.73
61506;BME280;47366;51.916;4.574;2023-02-01T14:24:01;102052.56;;;7.91;77.07
61506;BME280;47366;51.916;4.574;2023-02-01T14:34:40;102050.78;;;7.92;77.29
61506;BME280;47366;51.916;4.574;2023-02-01T14:37:11;102048.06;;;7.92;77.45
61506;BME280;47366;51.916;4.574;2023-02-01T14:44:44;102041.72;;;7.93;77.42
61506;BME280;47366;51.916;4.574;2023-02-01T14:50:03;102056.03;;;7.96;77.55
61506;BME280;47366;51.916;4.574;2023-02-01T14:52:37;102056.03;;;7.96;77.73
61506;BME280;47366;51.916;4.574;2023-02-01T14:55:18;102061.50;;;7.93;77.70
61506;BME280;47366;51.916;4.574;2023-02-01T14:57:49;102057.91;;;7.93;78.09
61506;BME280;47366;51.916;4.574;2023-02-01T15:02:45;102060.75;;;7.88;78.26
61506;BME280;47366;51.916;4.574;2023-02-01T15:05:32;102059.84;;;7.89;78.26
61506;BME280;47366;51.916;4.574;2023-02-01T15:08:16;102064.41;;;7.87;78.67
61506;BME280;47366;51.916;4.574;2023-02-01T15:10:46;102062.56;;;7.87;78.48
61506;BME280;47366;51.916;4.574;2023-02-01T15:13:24;102065.31;;;7.86;78.79
61506;BME280;47366;51.916;4.574;2023-02-01T15:16:09;102060.75;;;7.88;78.62
61506;BME280;47366;51.916;4.574;2023-02-01T15:18:35;102058.03;;;7.90;78.90
61506;BME280;47366;51.916;4.574;2023-02-01T15:21:03;102071.50;;;7.90;78.80
61506;BME280;47366;51.916;4.574;2023-02-01T15:23:30;102048.09;;;7.90;78.78
61506;BME280;47366;51.916;4.574;2023-02-01T15:25:56;102058.91;;;7.90;78.53
61506;BME280;47366;51.916;4.574;2023-02-01T15:28:22;102058.03;;;7.90;78.88
61506;BME280;47366;51.916;4.574;2023-02-01T15:33:21;102055.19;;;7.94;78.64